sensor_id;sensor_type;location;lat;lon;timestamp;pressure;altitude;pressure_sealevel;temperature;humidity
38400;BME280;24180;42.676;23.320;2024-02-14T00:02:10;94689.84;;;4.66;75.36
38400;BME280;24180;42.676;23.320;2024-02-14T00:04:35;94711.16;;;4.76;75.53
38400;BME280;24180;42.676;23.320;2024-02-14T00:07:01;94695.25;;;4.65;73.47
38400;BME280;24180;42.676;23.320;2024-02-14T00:09:26;94703.69;;;4.65;74.48
38400;BME280;24180;42.676;23.320;2024-02-14T00:11:52;94717.03;;;4.76;75.36
38400;BME280;24180;42.676;23.320;2024-02-14T00:14:17;94702.50;;;4.63;74.24
38400;BME280;24180;42.676;23.320;2024-02-14T00:16:45;94716.28;;;4.76;73.45
38400;BME280;24180;42.676;23.320;2024-02-14T00:19:11;94730.13;;;4.75;75.19
38400;BME280;24180;42.676;23.320;2024-02-14T00:21:37;94736.00;;;4.75;74.30
38400;BME280;24180;42.676;23.320;2024-02-14T00:24:03;94737.06;;;4.74;74.79
38400;BME280;24180;42.676;23.320;2024-02-14T00:26:30;94723.16;;;4.66;73.70
38400;BME280;24180;42.676;23.320;2024-02-14T00:28:55;94731.00;;;4.70;74.29
38400;BME280;24180;42.676;23.320;2024-02-14T00:31:21;94719.94;;;4.61;74.08
38400;BME280;24180;42.676;23.320;2024-02-14T00:33:46;94729.38;;;4.74;74.13
38400;BME280;24180;42.676;23.320;2024-02-14T00:36:12;94713.75;;;4.62;73.78
38400;BME280;24180;42.676;23.320;2024-02-14T00:38:37;94700.25;;;4.48;74.50
38400;BME280;24180;42.676;23.320;2024-02-14T00:41:03;94720.09;;;4.64;73.52
38400;BME280;24180;42.676;23.320;2024-02-14T00:43:29;94740.56;;;4.78;73.85
38400;BME280;24180;42.676;23.320;2024-02-14T00:45:54;94719.19;;;4.60;75.13
38400;BME280;24180;42.676;23.320;2024-02-14T00:48:22;94738.13;;;4.73;74.41
38400;BME280;24180;42.676;23.320;2024-02-14T00:50:48;94743.13;;;4.78;75.51
38400;BME280;24180;42.676;23.320;2024-02-14T00:53:13;94730.88;;;4.75;73.60
38400;BME280;24180;42.676;23.320;2024-02-14T00:55:39;94745.41;;;4.80;74.48
38400;BME280;24180;42.676;23.320;2024-02-14T00:58:05;94732.50;;;4.71;75.03
38400;BME280;24180;42.676;23.320;2024-02-14T01:00:30;94716.50;;;4.65;73.51
38400;BME280;24180;42.676;23.320;2024-02-14T01:02:57;94689.31;;;4.56;73.58
38400;BME280;24180;42.676;23.320;2024-02-14T01:05:23;94747.03;;;4.76;74.88
38400;BME280;24180;42.676;23.320;2024-02-14T01:07:49;94718.78;;;4.67;74.93
38400;BME280;24180;42.676;23.320;2024-02-14T01:10:14;94734.41;;;4.79;73.50
38400;BME280;24180;42.676;23.320;2024-02-14T01:12:40;94709.91;;;4.51;74.80
38400;BME280;24180;42.676;23.320;2024-02-14T01:15:06;94727.38;;;4.71;73.71
38400;BME280;24180;42.676;23.320;2024-02-14T01:17:31;94732.69;;;4.75;73.36
38400;BME280;24180;42.676;23.320;2024-02-14T01:19:57;94738.00;;;4.78;74.49
38400;BME280;24180;42.676;23.320;2024-02-14T01:22:24;94739.53;;;4.79;73.66
38400;BME280;24180;42.676;23.320;2024-02-14T01:24:49;94721.81;;;4.69;72.97
38400;BME280;24180;42.676;23.320;2024-02-14T01:27:15;94722.84;;;4.68;74.70
38400;BME280;24180;42.676;23.320;2024-02-14T01:29:41;94729.56;;;4.78;74.22
38400;BME280;24180;42.676;23.320;2024-02-14T01:32:07;94721.63;;;4.65;73.44
38400;BME280;24180;42.676;23.320;2024-02-14T01:34:34;94731.94;;;4.74;73.40
38400;BME280;24180;42.676;23.320;2024-02-14T01:37:00;94721.34;;;4.67;74.14
38400;BME280;24180;42.676;23.320;2024-02-14T01:39:26;94725.88;;;4.70;73.39
38400;BME280;24180;42.676;23.320;2024-02-14T01:41:51;94741.59;;;4.77;74.76
38400;BME280;24180;42.676;23.320;2024-02-14T01:44:17;94722.56;;;4.70;74.33
38400;BME280;24180;42.676;23.320;2024-02-14T01:46:44;94731.25;;;4.82;73.31
38400;BME280;24180;42.676;23.320;2024-02-14T01:49:10;94725.88;;;4.70;73.56
38400;BME280;24180;42.676;23.320;2024-02-14T01:51:40;94722.66;;;4.64;73.27
38400;BME280;24180;42.676;23.320;2024-02-14T01:54:08;94737.06;;;4.74;73.74
38400;BME280;24180;42.676;23.320;2024-02-14T01:56:35;94731.00;;;4.70;73.77
38400;BME280;24180;42.676;23.320;2024-02-14T01:59:01;94719.84;;;4.66;72.77
38400;BME280;24180;42.676;23.320;2024-02-14T02:01:26;94725.53;;;4.63;73.12
38400;BME280;24180;42.676;23.320;2024-02-14T02:03:53;94742.50;;;4.73;74.55
38400;BME280;24180;42.676;23.320;2024-02-14T02:06:18;94719.00;;;4.57;74.01
38400;BME280;24180;42.676;23.320;2024-02-14T02:08:44;94718.44;;;4.60;73.77
38400;BME280;24180;42.676;23.320;2024-02-14T02:11:10;94713.56;;;4.58;74.51
38400;BME280;24180;42.676;23.320;2024-02-14T02:13:35;94747.81;;;4.62;73.76
38400;BME280;24180;42.676;23.320;2024-02-14T02:16:02;94728.28;;;4.53;74.69
38400;BME280;24180;42.676;23.320;2024-02-14T02:18:30;94751.16;;;4.63;74.31
38400;BME280;24180;42.676;23.320;2024-02-14T02:20:56;94746.59;;;4.60;74.71
38400;BME280;24180;42.676;23.320;2024-02-14T02:23:22;94750.44;;;4.71;73.35
38400;BME280;24180;42.676;23.320;2024-02-14T02:25:48;94753.88;;;4.66;74.18
38400;BME280;24180;42.676;23.320;2024-02-14T02:28:14;94736.75;;;4.53;73.87
38400;BME280;24180;42.676;23.320;2024-02-14T02:30:40;94754.47;;;4.63;72.90
38400;BME280;24180;42.676;23.320;2024-02-14T02:33:05;94752.34;;;4.65;72.39
38400;BME280;24180;42.676;23.320;2024-02-14T02:35:32;94742.16;;;4.52;72.70
38400;BME280;24180;42.676;23.320;2024-02-14T02:37:58;94759.00;;;4.66;73.04
38400;BME280;24180;42.676;23.320;2024-02-14T02:40:25;94737.50;;;4.54;72.74
38400;BME280;24180;42.676;23.320;2024-02-14T02:42:52;94749.59;;;4.62;72.04
38400;BME280;24180;42.676;23.320;2024-02-14T02:45:18;94771.25;;;4.70;72.60
38400;BME280;24180;42.676;23.320;2024-02-14T02:47:43;94770.34;;;4.74;73.23
38400;BME280;24180;42.676;23.320;2024-02-14T02:50:09;94769.06;;;4.63;73.14
38400;BME280;24180;42.676;23.320;2024-02-14T02:52:34;94762.72;;;4.60;72.92
38400;BME280;24180;42.676;23.320;2024-02-14T02:55:00;94773.03;;;4.69;71.96
38400;BME280;24180;42.676;23.320;2024-02-14T02:57:28;94782.22;;;4.70;73.38
38400;BME280;24180;42.676;23.320;2024-02-14T02:59:53;94778.16;;;4.69;72.18
38400;BME280;24180;42.676;23.320;2024-02-14T03:02:19;94774.81;;;4.69;72.86
38400;BME280;24180;42.676;23.320;2024-02-14T03:04:45;94759.09;;;4.61;71.46
38400;BME280;24180;42.676;23.320;2024-02-14T03:07:12;94787.81;;;4.72;72.35
38400;BME280;24180;42.676;23.320;2024-02-14T03:09:37;94750.31;;;4.40;71.80
38400;BME280;24180;42.676;23.320;2024-02-14T03:12:03;94790.66;;;4.71;71.33
38400;BME280;24180;42.676;23.320;2024-02-14T03:14:32;94796.09;;;4.69;71.17
38400;BME280;24180;42.676;23.320;2024-02-14T03:17:02;94775.63;;;4.55;71.22
38400;BME280;24180;42.676;23.320;2024-02-14T03:19:28;94777.41;;;4.55;71.34
38400;BME280;24180;42.676;23.320;2024-02-14T03:21:57;94797.13;;;4.68;71.72
38400;BME280;24180;42.676;23.320;2024-02-14T03:24:25;94780.91;;;4.59;71.11
38400;BME280;24180;42.676;23.320;2024-02-14T03:26:51;94797.91;;;4.55;71.73
38400;BME280;24180;42.676;23.320;2024-02-14T03:29:19;94816.09;;;4.67;72.42
38400;BME280;24180;42.676;23.320;2024-02-14T03:31:45;94814.59;;;4.66;72.28
38400;BME280;24180;42.676;23.320;2024-02-14T03:34:11;94805.75;;;4.58;72.51
38400;BME280;24180;42.676;23.320;2024-02-14T03:36:37;94823.78;;;4.67;71.47
38400;BME280;24180;42.676;23.320;2024-02-14T03:39:03;94824.25;;;4.69;71.33
38400;BME280;24180;42.676;23.320;2024-02-14T03:41:30;94834.22;;;4.71;70.50
38400;BME280;24180;42.676;23.320;2024-02-14T03:43:55;94802.09;;;4.51;72.09
38400;BME280;24180;42.676;23.320;2024-02-14T03:46:28;94819.31;;;4.59;71.34
38400;BME280;24180;42.676;23.320;2024-02-14T03:48:54;94841.41;;;4.69;70.95
38400;BME280;24180;42.676;23.320;2024-02-14T03:51:20;94842.84;;;4.61;70.79
38400;BME280;24180;42.676;23.320;2024-02-14T03:53:47;94830.53;;;4.63;71.21
38400;BME280;24180;42.676;23.320;2024-02-14T03:56:13;94798.75;;;4.36;70.85
38400;BME280;24180;42.676;23.320;2024-02-14T03:58:41;94820.47;;;4.53;70.17
38400;BME280;24180;42.676;23.320;2024-02-14T04:01:07;94823.41;;;4.46;71.20
38400;BME280;24180;42.676;23.320;2024-02-14T04:03:33;94832.88;;;4.59;71.41
38400;BME280;24180;42.676;23.320;2024-02-14T04:05:58;94825.50;;;4.44;71.03
38400;BME280;24180;42.676;23.320;2024-02-14T04:08:24;94813.75;;;4.43;70.54
38400;BME280;24180;42.676;23.320;2024-02-14T04:10:49;94843.06;;;4.51;71.60
38400;BME280;24180;42.676;23.320;2024-02-14T04:13:16;94842.38;;;4.59;71.06
38400;BME280;24180;42.676;23.320;2024-02-14T04:15:41;94826.16;;;4.50;71.24
38400;BME280;24180;42.676;23.320;2024-02-14T04:18:10;94854.41;;;4.58;70.67
38400;BME280;24180;42.676;23.320;2024-02-14T04:20:36;94840.56;;;4.46;72.01
38400;BME280;24180;42.676;23.320;2024-02-14T04:23:01;94849.97;;;4.64;69.79
38400;BME280;24180;42.676;23.320;2024-02-14T04:25:28;94855.00;;;4.55;71.42
38400;BME280;24180;42.676;23.320;2024-02-14T04:27:54;94849.50;;;4.48;71.11
38400;BME280;24180;42.676;23.320;2024-02-14T04:30:19;94826.00;;;4.18;71.19
38400;BME280;24180;42.676;23.320;2024-02-14T04:32:44;94868.75;;;4.46;70.52
38400;BME280;24180;42.676;23.320;2024-02-14T04:35:10;94847.88;;;4.38;71.22
38400;BME280;24180;42.676;23.320;2024-02-14T04:37:36;94864.28;;;4.37;71.67
38400;BME280;24180;42.676;23.320;2024-02-14T04:40:02;94878.59;;;4.52;71.59
38400;BME280;24180;42.676;23.320;2024-02-14T04:42:29;94834.88;;;4.21;71.29
38400;BME280;24180;42.676;23.320;2024-02-14T04:44:54;94880.41;;;4.52;70.92
38400;BME280;24180;42.676;23.320;2024-02-14T04:47:20;94868.44;;;4.33;72.78
38400;BME280;24180;42.676;23.320;2024-02-14T04:49:46;94881.25;;;4.33;72.40
38400;BME280;24180;42.676;23.320;2024-02-14T04:52:11;94875.56;;;4.36;72.45
38400;BME280;24180;42.676;23.320;2024-02-14T04:54:36;94877.28;;;4.41;72.49
38400;BME280;24180;42.676;23.320;2024-02-14T04:57:02;94895.84;;;4.47;72.73
38400;BME280;24180;42.676;23.320;2024-02-14T04:59:30;94887.03;;;4.39;72.66
38400;BME280;24180;42.676;23.320;2024-02-14T05:01:55;94883.44;;;4.26;72.48
38400;BME280;24180;42.676;23.320;2024-02-14T05:04:21;94859.06;;;4.15;72.13
38400;BME280;24180;42.676;23.320;2024-02-14T05:06:48;94904.41;;;4.42;72.81
38400;BME280;24180;42.676;23.320;2024-02-14T05:09:15;94878.38;;;4.21;72.69
38400;BME280;24180;42.676;23.320;2024-02-14T05:11:41;94891.97;;;4.35;71.84
38400;BME280;24180;42.676;23.320;2024-02-14T05:14:06;94908.09;;;4.36;71.22
38400;BME280;24180;42.676;23.320;2024-02-14T05:16:32;94909.50;;;4.28;71.85
38400;BME280;24180;42.676;23.320;2024-02-14T05:18:57;94903.22;;;4.20;72.25
38400;BME280;24180;42.676;23.320;2024-02-14T05:21:23;94910.16;;;4.20;72.82
38400;BME280;24180;42.676;23.320;2024-02-14T05:23:48;94921.56;;;4.28;71.79
38400;BME280;24180;42.676;23.320;2024-02-14T05:26:15;94897.44;;;4.15;72.17
38400;BME280;24180;42.676;23.320;2024-02-14T05:28:40;94897.59;;;4.05;73.21
38400;BME280;24180;42.676;23.320;2024-02-14T05:31:06;94930.75;;;4.29;72.88
38400;BME280;24180;42.676;23.320;2024-02-14T05:33:31;94939.94;;;4.30;71.86
38400;BME280;24180;42.676;23.320;2024-02-14T05:35:57;94945.91;;;4.25;72.68
38400;BME280;24180;42.676;23.320;2024-02-14T05:38:22;94945.34;;;4.28;72.57
38400;BME280;24180;42.676;23.320;2024-02-14T05:40:49;94934.59;;;4.12;72.19
38400;BME280;24180;42.676;23.320;2024-02-14T05:43:15;94943.03;;;4.13;72.42
38400;BME280;24180;42.676;23.320;2024-02-14T05:45:41;94955.94;;;4.22;72.70
38400;BME280;24180;42.676;23.320;2024-02-14T05:48:07;94959.88;;;4.14;71.73
38400;BME280;24180;42.676;23.320;2024-02-14T05:50:33;94958.66;;;4.11;73.16
38400;BME280;24180;42.676;23.320;2024-02-14T05:52:59;94947.75;;;4.06;71.32
38400;BME280;24180;42.676;23.320;2024-02-14T05:55:25;94956.88;;;4.12;71.98
38400;BME280;24180;42.676;23.320;2024-02-14T05:57:51;94966.53;;;4.15;70.79
38400;BME280;24180;42.676;23.320;2024-02-14T06:00:20;94968.63;;;4.13;70.77
38400;BME280;24180;42.676;23.320;2024-02-14T06:02:47;94971.66;;;4.15;72.39
38400;BME280;24180;42.676;23.320;2024-02-14T06:05:13;94966.81;;;4.13;71.15
38400;BME280;24180;42.676;23.320;2024-02-14T06:07:38;94979.03;;;4.16;70.92
38400;BME280;24180;42.676;23.320;2024-02-14T06:10:06;94991.47;;;4.23;70.59
38400;BME280;24180;42.676;23.320;2024-02-14T06:12:34;94992.78;;;4.20;71.09
38400;BME280;24180;42.676;23.320;2024-02-14T06:15:00;94950.66;;;3.99;70.73
38400;BME280;24180;42.676;23.320;2024-02-14T06:17:26;94999.03;;;4.14;71.19
38400;BME280;24180;42.676;23.320;2024-02-14T06:19:52;94993.16;;;4.14;70.36
38400;BME280;24180;42.676;23.320;2024-02-14T06:22:18;94961.81;;;3.89;69.32
38400;BME280;24180;42.676;23.320;2024-02-14T06:24:43;94994.47;;;4.11;71.23
38400;BME280;24180;42.676;23.320;2024-02-14T06:27:09;95002.94;;;4.12;70.53
38400;BME280;24180;42.676;23.320;2024-02-14T06:29:35;94995.94;;;3.99;69.99
38400;BME280;24180;42.676;23.320;2024-02-14T06:32:00;95009.81;;;4.11;70.13
38400;BME280;24180;42.676;23.320;2024-02-14T06:34:26;95007.69;;;4.18;70.46
38400;BME280;24180;42.676;23.320;2024-02-14T06:36:53;94996.38;;;4.06;69.50
38400;BME280;24180;42.676;23.320;2024-02-14T06:39:19;95014.81;;;4.22;69.38
38400;BME280;24180;42.676;23.320;2024-02-14T06:41:46;95012.59;;;4.15;70.05
38400;BME280;24180;42.676;23.320;2024-02-14T06:44:12;95022.19;;;4.23;70.27
38400;BME280;24180;42.676;23.320;2024-02-14T06:46:38;95020.19;;;4.20;68.90
38400;BME280;24180;42.676;23.320;2024-02-14T06:49:04;95004.50;;;4.08;68.41
38400;BME280;24180;42.676;23.320;2024-02-14T06:51:29;95010.13;;;4.10;68.58
38400;BME280;24180;42.676;23.320;2024-02-14T06:53:56;95006.59;;;4.06;69.42
38400;BME280;24180;42.676;23.320;2024-02-14T06:56:21;95033.16;;;4.10;68.91
38400;BME280;24180;42.676;23.320;2024-02-14T06:58:47;95029.97;;;4.18;68.83
38400;BME280;24180;42.676;23.320;2024-02-14T07:01:17;95012.38;;;4.11;68.25
38400;BME280;24180;42.676;23.320;2024-02-14T07:03:47;95040.50;;;4.30;68.87
38400;BME280;24180;42.676;23.320;2024-02-14T07:06:13;95021.03;;;4.15;67.57
38400;BME280;24180;42.676;23.320;2024-02-14T07:08:41;95034.63;;;4.30;67.37
38400;BME280;24180;42.676;23.320;2024-02-14T07:11:06;95035.38;;;4.30;68.67
38400;BME280;24180;42.676;23.320;2024-02-14T07:13:31;95033.38;;;4.27;68.24
38400;BME280;24180;42.676;23.320;2024-02-14T07:15:57;95040.81;;;4.29;67.69
38400;BME280;24180;42.676;23.320;2024-02-14T07:18:22;95046.13;;;4.13;68.05
38400;BME280;24180;42.676;23.320;2024-02-14T07:20:48;95058.78;;;4.24;67.05
38400;BME280;24180;42.676;23.320;2024-02-14T07:23:13;95046.34;;;4.17;67.25
38400;BME280;24180;42.676;23.320;2024-02-14T07:25:39;95062.44;;;4.36;66.14
38400;BME280;24180;42.676;23.320;2024-02-14T07:28:04;95039.03;;;4.10;67.06
38400;BME280;24180;42.676;23.320;2024-02-14T07:30:30;95051.31;;;4.27;66.27
38400;BME280;24180;42.676;23.320;2024-02-14T07:32:55;95059.22;;;4.31;66.13
38400;BME280;24180;42.676;23.320;2024-02-14T07:35:21;95069.19;;;4.46;66.36
38400;BME280;24180;42.676;23.320;2024-02-14T07:37:48;95054.84;;;4.31;65.61
38400;BME280;24180;42.676;23.320;2024-02-14T07:40:14;95067.00;;;4.39;66.67
38400;BME280;24180;42.676;23.320;2024-02-14T07:42:40;95063.34;;;4.27;66.48
38400;BME280;24180;42.676;23.320;2024-02-14T07:45:06;95064.53;;;4.34;67.02
38400;BME280;24180;42.676;23.320;2024-02-14T07:47:31;95054.09;;;4.31;66.24
38400;BME280;24180;42.676;23.320;2024-02-14T07:49:57;95063.97;;;4.37;65.92
38400;BME280;24180;42.676;23.320;2024-02-14T07:52:23;95080.19;;;4.47;67.00
38400;BME280;24180;42.676;23.320;2024-02-14T07:54:56;95088.19;;;4.45;66.73
38400;BME280;24180;42.676;23.320;2024-02-14T07:57:24;95071.50;;;4.48;67.16
38400;BME280;24180;42.676;23.320;2024-02-14T07:59:51;95091.97;;;4.48;66.79
38400;BME280;24180;42.676;23.320;2024-02-14T08:02:17;95067.50;;;4.23;66.89
38400;BME280;24180;42.676;23.320;2024-02-14T08:04:43;95089.44;;;4.29;68.48
38400;BME280;24180;42.676;23.320;2024-02-14T08:07:09;95090.00;;;4.26;67.31
38400;BME280;24180;42.676;23.320;2024-02-14T08:09:35;95082.66;;;4.19;68.80
38400;BME280;24180;42.676;23.320;2024-02-14T08:12:00;95069.22;;;4.08;67.49
38400;BME280;24180;42.676;23.320;2024-02-14T08:14:26;95055.81;;;3.97;68.32
38400;BME280;24180;42.676;23.320;2024-02-14T08:16:52;95064.06;;;3.94;68.56
38400;BME280;24180;42.676;23.320;2024-02-14T08:19:17;95077.00;;;4.03;68.73
38400;BME280;24180;42.676;23.320;2024-02-14T08:21:44;95085.38;;;4.09;67.60
38400;BME280;24180;42.676;23.320;2024-02-14T08:24:09;95086.81;;;4.15;67.29
38400;BME280;24180;42.676;23.320;2024-02-14T08:26:35;95083.00;;;4.12;68.46
38400;BME280;24180;42.676;23.320;2024-02-14T08:29:00;95108.25;;;4.19;66.47
38400;BME280;24180;42.676;23.320;2024-02-14T08:31:26;95084.50;;;3.94;66.54
38400;BME280;24180;42.676;23.320;2024-02-14T08:33:51;95122.16;;;4.13;66.62
38400;BME280;24180;42.676;23.320;2024-02-14T08:36:18;95123.06;;;4.22;66.83
38400;BME280;24180;42.676;23.320;2024-02-14T08:38:44;95104.50;;;4.11;66.45
38400;BME280;24180;42.676;23.320;2024-02-14T08:41:09;95089.50;;;4.05;66.70
38400;BME280;24180;42.676;23.320;2024-02-14T08:43:35;95078.66;;;3.94;67.78
38400;BME280;24180;42.676;23.320;2024-02-14T08:46:00;95125.19;;;4.34;66.38
38400;BME280;24180;42.676;23.320;2024-02-14T08:48:26;95102.19;;;4.15;67.21
38400;BME280;24180;42.676;23.320;2024-02-14T08:50:54;95134.13;;;4.36;66.53
38400;BME280;24180;42.676;23.320;2024-02-14T08:53:20;95117.31;;;4.30;66.42
38400;BME280;24180;42.676;23.320;2024-02-14T08:55:46;95117.66;;;4.24;66.86
38400;BME280;24180;42.676;23.320;2024-02-14T08:58:11;95141.88;;;4.31;66.42
38400;BME280;24180;42.676;23.320;2024-02-14T09:00:37;95132.34;;;4.18;66.36
38400;BME280;24180;42.676;23.320;2024-02-14T09:03:04;95143.19;;;4.29;65.81
38400;BME280;24180;42.676;23.320;2024-02-14T09:05:29;95145.97;;;4.32;66.62
38400;BME280;24180;42.676;23.320;2024-02-14T09:07:55;95122.09;;;4.18;66.31
38400;BME280;24180;42.676;23.320;2024-02-14T09:10:21;95150.88;;;4.29;66.10
38400;BME280;24180;42.676;23.320;2024-02-14T09:12:47;95127.13;;;4.04;65.12
38400;BME280;24180;42.676;23.320;2024-02-14T09:15:13;95131.22;;;4.24;67.57
38400;BME280;24180;42.676;23.320;2024-02-14T09:17:39;95140.88;;;4.08;65.34
38400;BME280;24180;42.676;23.320;2024-02-14T09:20:06;95143.09;;;3.96;66.93
38400;BME280;24180;42.676;23.320;2024-02-14T09:22:37;95137.13;;;3.82;68.18
38400;BME280;24180;42.676;23.320;2024-02-14T09:25:03;95130.81;;;3.74;68.30
38400;BME280;24180;42.676;23.320;2024-02-14T09:27:34;95160.91;;;3.82;69.21
38400;BME280;24180;42.676;23.320;2024-02-14T09:30:03;95158.41;;;3.77;68.82
38400;BME280;24180;42.676;23.320;2024-02-14T09:32:30;95174.19;;;3.84;68.31
38400;BME280;24180;42.676;23.320;2024-02-14T09:34:56;95145.16;;;3.70;68.39
38400;BME280;24180;42.676;23.320;2024-02-14T09:37:22;95160.69;;;3.79;69.89
38400;BME280;24180;42.676;23.320;2024-02-14T09:39:49;95158.88;;;3.79;68.62
38400;BME280;24180;42.676;23.320;2024-02-14T09:42:16;95152.13;;;3.88;68.66
38400;BME280;24180;42.676;23.320;2024-02-14T09:44:45;95142.22;;;3.82;67.80
38400;BME280;24180;42.676;23.320;2024-02-14T09:47:11;95162.31;;;3.93;67.57
38400;BME280;24180;42.676;23.320;2024-02-14T09:49:38;95150.41;;;3.84;67.05
38400;BME280;24180;42.676;23.320;2024-02-14T09:52:05;95167.44;;;3.93;67.42
38400;BME280;24180;42.676;23.320;2024-02-14T09:54:32;95154.13;;;3.91;66.09
38400;BME280;24180;42.676;23.320;2024-02-14T09:57:02;95138.41;;;3.79;68.52
38400;BME280;24180;42.676;23.320;2024-02-14T09:59:28;95110.53;;;3.59;66.63
38400;BME280;24180;42.676;23.320;2024-02-14T10:01:54;95138.03;;;3.91;67.92
38400;BME280;24180;42.676;23.320;2024-02-14T10:04:19;95145.59;;;4.01;67.42
38400;BME280;24180;42.676;23.320;2024-02-14T10:06:47;95141.38;;;4.10;66.44
38400;BME280;24180;42.676;23.320;2024-02-14T10:09:21;95158.41;;;4.20;66.43
38400;BME280;24180;42.676;23.320;2024-02-14T10:11:48;95127.88;;;4.05;66.95
38400;BME280;24180;42.676;23.320;2024-02-14T10:14:13;95147.69;;;4.18;66.08
38400;BME280;24180;42.676;23.320;2024-02-14T10:16:39;95101.50;;;3.85;66.88
38400;BME280;24180;42.676;23.320;2024-02-14T10:19:04;95148.56;;;4.08;65.98
38400;BME280;24180;42.676;23.320;2024-02-14T10:21:33;95134.25;;;4.07;65.93
38400;BME280;24180;42.676;23.320;2024-02-14T10:24:01;95118.47;;;4.00;64.97
38400;BME280;24180;42.676;23.320;2024-02-14T10:26:28;95142.13;;;4.11;66.29
38400;BME280;24180;42.676;23.320;2024-02-14T10:28:56;95146.81;;;4.28;65.15
38400;BME280;24180;42.676;23.320;2024-02-14T10:31:25;95151.28;;;4.17;65.59
38400;BME280;24180;42.676;23.320;2024-02-14T10:33:52;95139.03;;;4.14;64.75
38400;BME280;24180;42.676;23.320;2024-02-14T10:36:20;95140.56;;;4.15;65.39
38400;BME280;24180;42.676;23.320;2024-02-14T10:38:47;95147.47;;;4.33;63.64
38400;BME280;24180;42.676;23.320;2024-02-14T10:41:16;95142.28;;;4.38;63.72
38400;BME280;24180;42.676;23.320;2024-02-14T10:43:43;95119.25;;;4.38;64.74
38400;BME280;24180;42.676;23.320;2024-02-14T10:46:19;95144.13;;;4.71;63.96
38400;BME280;24180;42.676;23.320;2024-02-14T10:48:46;95149.88;;;4.62;62.50
38400;BME280;24180;42.676;23.320;2024-02-14T10:51:12;95119.41;;;4.28;62.75
38400;BME280;24180;42.676;23.320;2024-02-14T10:53:40;95125.81;;;4.45;63.03
38400;BME280;24180;42.676;23.320;2024-02-14T10:56:13;95144.84;;;4.57;63.41
38400;BME280;24180;42.676;23.320;2024-02-14T10:58:44;95143.88;;;4.53;63.65
38400;BME280;24180;42.676;23.320;2024-02-14T11:01:11;95160.06;;;4.49;63.45
38400;BME280;24180;42.676;23.320;2024-02-14T11:03:37;95132.25;;;4.42;62.67
38400;BME280;24180;42.676;23.320;2024-02-14T11:06:03;95164.69;;;4.47;63.04
38400;BME280;24180;42.676;23.320;2024-02-14T11:08:29;95155.44;;;4.51;62.91
38400;BME280;24180;42.676;23.320;2024-02-14T11:10:59;95153.69;;;4.46;64.44
38400;BME280;24180;42.676;23.320;2024-02-14T11:13:30;95126.88;;;4.43;62.78
38400;BME280;24180;42.676;23.320;2024-02-14T11:16:00;95114.28;;;4.28;62.57
38400;BME280;24180;42.676;23.320;2024-02-14T11:18:27;95146.22;;;4.50;63.23
38400;BME280;24180;42.676;23.320;2024-02-14T11:20:55;95147.28;;;4.49;62.93
38400;BME280;24180;42.676;23.320;2024-02-14T11:23:23;95137.97;;;4.53;63.68
38400;BME280;24180;42.676;23.320;2024-02-14T11:25:48;95123.88;;;4.36;63.31
38400;BME280;24180;42.676;23.320;2024-02-14T11:28:17;95126.94;;;4.38;62.19
38400;BME280;24180;42.676;23.320;2024-02-14T11:30:45;95135.88;;;4.41;63.33
38400;BME280;24180;42.676;23.320;2024-02-14T11:35:48;95123.72;;;4.47;61.91
38400;BME280;24180;42.676;23.320;2024-02-14T11:38:17;95153.00;;;4.59;61.57
38400;BME280;24180;42.676;23.320;2024-02-14T11:40:43;95135.56;;;4.42;63.08
38400;BME280;24180;42.676;23.320;2024-02-14T11:43:13;95147.69;;;4.56;62.86
38400;BME280;24180;42.676;23.320;2024-02-14T11:45:41;95130.44;;;4.42;62.08
38400;BME280;24180;42.676;23.320;2024-02-14T11:48:11;95138.97;;;4.57;63.04
38400;BME280;24180;42.676;23.320;2024-02-14T11:50:41;95122.72;;;4.48;62.18
38400;BME280;24180;42.676;23.320;2024-02-14T11:53:09;95130.84;;;4.50;62.26
38400;BME280;24180;42.676;23.320;2024-02-14T11:55:37;95156.25;;;4.65;62.94
38400;BME280;24180;42.676;23.320;2024-02-14T11:58:08;95153.22;;;4.63;62.54
38400;BME280;24180;42.676;23.320;2024-02-14T12:00:37;95137.94;;;4.58;62.52
38400;BME280;24180;42.676;23.320;2024-02-14T12:03:06;95110.66;;;4.48;61.87
38400;BME280;24180;42.676;23.320;2024-02-14T12:05:33;95124.75;;;4.64;62.65
38400;BME280;24180;42.676;23.320;2024-02-14T12:08:00;95147.84;;;4.78;61.82
38400;BME280;24180;42.676;23.320;2024-02-14T12:10:26;95142.53;;;4.75;62.04
38400;BME280;24180;42.676;23.320;2024-02-14T12:12:52;95144.44;;;4.69;62.78
38400;BME280;24180;42.676;23.320;2024-02-14T12:15:17;95115.22;;;4.51;62.09
38400;BME280;24180;42.676;23.320;2024-02-14T12:17:45;95120.28;;;4.56;62.35
38400;BME280;24180;42.676;23.320;2024-02-14T12:20:12;95119.59;;;4.51;61.79
38400;BME280;24180;42.676;23.320;2024-02-14T12:22:40;95132.94;;;4.66;61.86
38400;BME280;24180;42.676;23.320;2024-02-14T12:25:07;95141.72;;;4.79;62.42
38400;BME280;24180;42.676;23.320;2024-02-14T12:27:34;95113.34;;;4.76;62.44
38400;BME280;24180;42.676;23.320;2024-02-14T12:30:03;95136.97;;;4.86;62.15
38400;BME280;24180;42.676;23.320;2024-02-14T12:32:29;95137.38;;;4.94;62.06
38400;BME280;24180;42.676;23.320;2024-02-14T12:34:58;95114.19;;;4.85;61.42
38400;BME280;24180;42.676;23.320;2024-02-14T12:37:24;95129.44;;;4.95;61.09
38400;BME280;24180;42.676;23.320;2024-02-14T12:39:49;95134.75;;;4.99;60.31
38400;BME280;24180;42.676;23.320;2024-02-14T12:42:15;95114.97;;;4.85;60.55
38400;BME280;24180;42.676;23.320;2024-02-14T12:44:40;95131.06;;;5.05;61.25
38400;BME280;24180;42.676;23.320;2024-02-14T12:47:06;95130.75;;;5.06;60.93
38400;BME280;24180;42.676;23.320;2024-02-14T12:49:33;95135.31;;;4.96;60.72
38400;BME280;24180;42.676;23.320;2024-02-14T12:51:59;95132.66;;;5.01;60.76
38400;BME280;24180;42.676;23.320;2024-02-14T12:54:24;95127.28;;;5.16;60.53
38400;BME280;24180;42.676;23.320;2024-02-14T12:56:51;95127.06;;;5.12;59.66
38400;BME280;24180;42.676;23.320;2024-02-14T12:59:17;95140.28;;;5.20;58.77